sensor_id;sensor_type;location;lat;lon;timestamp;P1;durP1;ratioP1;P2;durP2;ratioP2
35056;SDS011;21241;51.828;19.574;2023-04-15T00:02:14;10.60;;;9.80;;
35056;SDS011;21241;51.828;19.574;2023-04-15T00:04:45;10.20;;;9.40;;
35056;SDS011;21241;51.828;19.574;2023-04-15T00:07:14;10.60;;;9.80;;
35056;SDS011;21241;51.828;19.574;2023-04-15T00:09:42;10.60;;;9.90;;
35056;SDS011;21241;51.828;19.574;2023-04-15T00:12:11;10.40;;;9.60;;
35056;SDS011;21241;51.828;19.574;2023-04-15T00:14:39;10.70;;;10.00;;
35056;SDS011;21241;51.828;19.574;2023-04-15T00:17:06;10.40;;;9.70;;
35056;SDS011;21241;51.828;19.574;2023-04-15T00:19:34;9.60;;;8.90;;
35056;SDS011;21241;51.828;19.574;2023-04-15T00:22:02;9.90;;;9.20;;
35056;SDS011;21241;51.828;19.574;2023-04-15T00:24:29;10.70;;;9.90;;
35056;SDS011;21241;51.828;19.574;2023-04-15T00:26:58;10.30;;;9.60;;
35056;SDS011;21241;51.828;19.574;2023-04-15T00:29:26;11.00;;;10.20;;
35056;SDS011;21241;51.828;19.574;2023-04-15T00:31:54;10.70;;;9.90;;
35056;SDS011;21241;51.828;19.574;2023-04-15T00:34:22;11.40;;;10.50;;
35056;SDS011;21241;51.828;19.574;2023-04-15T00:36:50;11.10;;;10.20;;
35056;SDS011;21241;51.828;19.574;2023-04-15T00:39:19;10.50;;;9.80;;
35056;SDS011;21241;51.828;19.574;2023-04-15T00:41:47;11.30;;;10.40;;
35056;SDS011;21241;51.828;19.574;2023-04-15T00:44:15;10.90;;;9.90;;
35056;SDS011;21241;51.828;19.574;2023-04-15T00:46:45;10.90;;;10.10;;
35056;SDS011;21241;51.828;19.574;2023-04-15T00:49:13;11.40;;;10.50;;
35056;SDS011;21241;51.828;19.574;2023-04-15T00:51:41;11.20;;;10.50;;
35056;SDS011;21241;51.828;19.574;2023-04-15T00:54:08;10.70;;;10.00;;
35056;SDS011;21241;51.828;19.574;2023-04-15T00:56:37;11.70;;;10.80;;
35056;SDS011;21241;51.828;19.574;2023-04-15T00:59:05;11.80;;;10.90;;
35056;SDS011;21241;51.828;19.574;2023-04-15T01:01:34;12.30;;;11.40;;
35056;SDS011;21241;51.828;19.574;2023-04-15T01:04:03;12.50;;;11.60;;
35056;SDS011;21241;51.828;19.574;2023-04-15T01:06:32;12.40;;;11.50;;
35056;SDS011;21241;51.828;19.574;2023-04-15T01:09:00;12.20;;;11.30;;
35056;SDS011;21241;51.828;19.574;2023-04-15T01:11:29;12.90;;;12.10;;
35056;SDS011;21241;51.828;19.574;2023-04-15T01:13:57;13.30;;;12.30;;
35056;SDS011;21241;51.828;19.574;2023-04-15T01:16:25;12.90;;;11.90;;
35056;SDS011;21241;51.828;19.574;2023-04-15T01:18:55;13.30;;;12.30;;
35056;SDS011;21241;51.828;19.574;2023-04-15T01:21:23;12.90;;;12.00;;
35056;SDS011;21241;51.828;19.574;2023-04-15T01:23:51;13.20;;;12.30;;
35056;SDS011;21241;51.828;19.574;2023-04-15T01:26:19;13.80;;;12.90;;
35056;SDS011;21241;51.828;19.574;2023-04-15T01:28:48;13.10;;;12.10;;
35056;SDS011;21241;51.828;19.574;2023-04-15T01:31:17;13.70;;;12.80;;
35056;SDS011;21241;51.828;19.574;2023-04-15T01:33:45;13.10;;;12.20;;
35056;SDS011;21241;51.828;19.574;2023-04-15T01:36:14;13.70;;;12.70;;
35056;SDS011;21241;51.828;19.574;2023-04-15T01:38:42;13.50;;;12.50;;
35056;SDS011;21241;51.828;19.574;2023-04-15T01:41:09;13.40;;;12.40;;
35056;SDS011;21241;51.828;19.574;2023-04-15T01:43:37;14.00;;;13.10;;
35056;SDS011;21241;51.828;19.574;2023-04-15T01:46:05;14.80;;;13.80;;
35056;SDS011;21241;51.828;19.574;2023-04-15T01:48:33;13.10;;;12.10;;
35056;SDS011;21241;51.828;19.574;2023-04-15T01:51:03;13.80;;;12.70;;
35056;SDS011;21241;51.828;19.574;2023-04-15T01:53:31;14.50;;;13.50;;
35056;SDS011;21241;51.828;19.574;2023-04-15T01:55:58;14.20;;;13.20;;
35056;SDS011;21241;51.828;19.574;2023-04-15T01:58:26;15.10;;;14.10;;
35056;SDS011;21241;51.828;19.574;2023-04-15T02:00:54;14.60;;;13.60;;
35056;SDS011;21241;51.828;19.574;2023-04-15T02:03:23;15.40;;;14.20;;
35056;SDS011;21241;51.828;19.574;2023-04-15T02:05:52;15.60;;;14.50;;
35056;SDS011;21241;51.828;19.574;2023-04-15T02:08:21;16.80;;;15.60;;
35056;SDS011;21241;51.828;19.574;2023-04-15T02:10:48;17.50;;;16.40;;
35056;SDS011;21241;51.828;19.574;2023-04-15T02:13:16;18.60;;;17.20;;
35056;SDS011;21241;51.828;19.574;2023-04-15T02:15:47;18.20;;;16.90;;
35056;SDS011;21241;51.828;19.574;2023-04-15T02:18:18;20.10;;;18.60;;
35056;SDS011;21241;51.828;19.574;2023-04-15T02:20:46;20.00;;;18.70;;
35056;SDS011;21241;51.828;19.574;2023-04-15T02:23:14;19.40;;;18.20;;
35056;SDS011;21241;51.828;19.574;2023-04-15T02:25:43;20.50;;;19.00;;
35056;SDS011;21241;51.828;19.574;2023-04-15T02:28:20;21.00;;;19.60;;
35056;SDS011;21241;51.828;19.574;2023-04-15T02:30:48;20.00;;;18.50;;
35056;SDS011;21241;51.828;19.574;2023-04-15T02:33:20;20.00;;;18.70;;
35056;SDS011;21241;51.828;19.574;2023-04-15T02:35:48;21.10;;;19.50;;
35056;SDS011;21241;51.828;19.574;2023-04-15T02:38:15;21.80;;;20.30;;
35056;SDS011;21241;51.828;19.574;2023-04-15T02:40:44;20.80;;;19.50;;
35056;SDS011;21241;51.828;19.574;2023-04-15T02:43:12;21.10;;;19.50;;
35056;SDS011;21241;51.828;19.574;2023-04-15T02:45:40;21.20;;;19.60;;
35056;SDS011;21241;51.828;19.574;2023-04-15T02:48:10;21.60;;;20.20;;
35056;SDS011;21241;51.828;19.574;2023-04-15T02:50:37;21.30;;;19.80;;
35056;SDS011;21241;51.828;19.574;2023-04-15T02:53:08;21.40;;;19.90;;
35056;SDS011;21241;51.828;19.574;2023-04-15T02:55:35;21.20;;;19.80;;
35056;SDS011;21241;51.828;19.574;2023-04-15T02:58:03;21.70;;;20.10;;
35056;SDS011;21241;51.828;19.574;2023-04-15T03:00:31;20.80;;;19.40;;
35056;SDS011;21241;51.828;19.574;2023-04-15T03:03:02;21.10;;;19.60;;
35056;SDS011;21241;51.828;19.574;2023-04-15T03:05:31;19.40;;;18.20;;
35056;SDS011;21241;51.828;19.574;2023-04-15T03:08:00;22.70;;;20.90;;
35056;SDS011;21241;51.828;19.574;2023-04-15T03:10:28;22.30;;;20.70;;
35056;SDS011;21241;51.828;19.574;2023-04-15T03:12:55;20.90;;;19.50;;
35056;SDS011;21241;51.828;19.574;2023-04-15T03:15:23;20.40;;;19.00;;
35056;SDS011;21241;51.828;19.574;2023-04-15T03:17:52;21.50;;;20.00;;
35056;SDS011;21241;51.828;19.574;2023-04-15T03:20:20;20.10;;;18.80;;
35056;SDS011;21241;51.828;19.574;2023-04-15T03:22:48;20.80;;;19.40;;
35056;SDS011;21241;51.828;19.574;2023-04-15T03:25:16;21.60;;;20.20;;
35056;SDS011;21241;51.828;19.574;2023-04-15T03:27:44;20.70;;;19.30;;
35056;SDS011;21241;51.828;19.574;2023-04-15T03:30:12;20.50;;;19.10;;
35056;SDS011;21241;51.828;19.574;2023-04-15T03:32:40;19.60;;;18.30;;
35056;SDS011;21241;51.828;19.574;2023-04-15T03:35:08;19.50;;;18.20;;
35056;SDS011;21241;51.828;19.574;2023-04-15T03:37:36;19.20;;;17.90;;
35056;SDS011;21241;51.828;19.574;2023-04-15T03:40:03;20.40;;;19.00;;
35056;SDS011;21241;51.828;19.574;2023-04-15T03:42:32;21.80;;;20.40;;
35056;SDS011;21241;51.828;19.574;2023-04-15T03:44:59;20.80;;;19.40;;
35056;SDS011;21241;51.828;19.574;2023-04-15T03:47:27;21.50;;;20.00;;
35056;SDS011;21241;51.828;19.574;2023-04-15T03:49:54;18.50;;;17.20;;
35056;SDS011;21241;51.828;19.574;2023-04-15T03:52:22;20.30;;;18.90;;
35056;SDS011;21241;51.828;19.574;2023-04-15T03:54:50;21.20;;;19.70;;
35056;SDS011;21241;51.828;19.574;2023-04-15T03:57:17;21.00;;;19.70;;
35056;SDS011;21241;51.828;19.574;2023-04-15T03:59:45;21.20;;;19.80;;
35056;SDS011;21241;51.828;19.574;2023-04-15T04:02:13;20.60;;;19.20;;
35056;SDS011;21241;51.828;19.574;2023-04-15T04:04:40;20.10;;;18.70;;
35056;SDS011;21241;51.828;19.574;2023-04-15T04:07:13;21.30;;;19.90;;
35056;SDS011;21241;51.828;19.574;2023-04-15T04:09:42;20.30;;;18.90;;
35056;SDS011;21241;51.828;19.574;2023-04-15T04:12:11;21.20;;;19.70;;
35056;SDS011;21241;51.828;19.574;2023-04-15T04:14:38;22.00;;;20.50;;
35056;SDS011;21241;51.828;19.574;2023-04-15T04:17:06;20.80;;;19.40;;
35056;SDS011;21241;51.828;19.574;2023-04-15T04:19:34;21.40;;;19.90;;
35056;SDS011;21241;51.828;19.574;2023-04-15T04:22:02;21.40;;;19.90;;
35056;SDS011;21241;51.828;19.574;2023-04-15T04:24:30;20.70;;;19.20;;
35056;SDS011;21241;51.828;19.574;2023-04-15T04:26:57;21.50;;;20.00;;
35056;SDS011;21241;51.828;19.574;2023-04-15T04:29:25;20.80;;;19.40;;
35056;SDS011;21241;51.828;19.574;2023-04-15T04:31:53;20.40;;;19.00;;
35056;SDS011;21241;51.828;19.574;2023-04-15T04:34:21;21.50;;;20.00;;
35056;SDS011;21241;51.828;19.574;2023-04-15T04:36:48;22.20;;;20.60;;
35056;SDS011;21241;51.828;19.574;2023-04-15T04:39:16;22.10;;;20.60;;
35056;SDS011;21241;51.828;19.574;2023-04-15T04:41:43;21.30;;;19.80;;
35056;SDS011;21241;51.828;19.574;2023-04-15T04:44:11;21.60;;;20.00;;
35056;SDS011;21241;51.828;19.574;2023-04-15T04:46:39;21.30;;;19.70;;
35056;SDS011;21241;51.828;19.574;2023-04-15T04:49:07;20.90;;;19.30;;
35056;SDS011;21241;51.828;19.574;2023-04-15T04:51:34;20.40;;;19.00;;
35056;SDS011;21241;51.828;19.574;2023-04-15T04:54:02;19.80;;;18.40;;
35056;SDS011;21241;51.828;19.574;2023-04-15T04:56:30;20.70;;;19.30;;
35056;SDS011;21241;51.828;19.574;2023-04-15T04:58:58;19.90;;;18.40;;
35056;SDS011;21241;51.828;19.574;2023-04-15T05:01:26;20.80;;;19.30;;
35056;SDS011;21241;51.828;19.574;2023-04-15T05:03:54;19.40;;;18.00;;
35056;SDS011;21241;51.828;19.574;2023-04-15T05:06:21;18.40;;;17.10;;
35056;SDS011;21241;51.828;19.574;2023-04-15T05:08:49;19.70;;;18.20;;
35056;SDS011;21241;51.828;19.574;2023-04-15T05:11:17;21.20;;;19.70;;
35056;SDS011;21241;51.828;19.574;2023-04-15T05:13:45;20.60;;;19.20;;
35056;SDS011;21241;51.828;19.574;2023-04-15T05:16:13;21.20;;;19.60;;
35056;SDS011;21241;51.828;19.574;2023-04-15T05:18:40;23.50;;;21.70;;
35056;SDS011;21241;51.828;19.574;2023-04-15T05:21:08;24.90;;;23.00;;
35056;SDS011;21241;51.828;19.574;2023-04-15T05:23:35;26.70;;;24.60;;
35056;SDS011;21241;51.828;19.574;2023-04-15T05:26:04;24.80;;;22.90;;
35056;SDS011;21241;51.828;19.574;2023-04-15T05:28:32;25.20;;;23.40;;
35056;SDS011;21241;51.828;19.574;2023-04-15T05:30:59;24.60;;;22.70;;
35056;SDS011;21241;51.828;19.574;2023-04-15T05:33:27;23.50;;;21.70;;
35056;SDS011;21241;51.828;19.574;2023-04-15T05:35:55;23.40;;;21.50;;
35056;SDS011;21241;51.828;19.574;2023-04-15T05:38:22;23.60;;;21.90;;
35056;SDS011;21241;51.828;19.574;2023-04-15T05:40:50;22.40;;;20.60;;
35056;SDS011;21241;51.828;19.574;2023-04-15T05:43:18;23.00;;;21.20;;
35056;SDS011;21241;51.828;19.574;2023-04-15T05:45:45;22.20;;;20.50;;
35056;SDS011;21241;51.828;19.574;2023-04-15T05:48:13;22.50;;;20.80;;
35056;SDS011;21241;51.828;19.574;2023-04-15T05:50:41;22.20;;;20.50;;
35056;SDS011;21241;51.828;19.574;2023-04-15T05:53:09;22.40;;;20.70;;
35056;SDS011;21241;51.828;19.574;2023-04-15T05:55:37;22.10;;;20.40;;
35056;SDS011;21241;51.828;19.574;2023-04-15T05:58:04;22.50;;;20.80;;
35056;SDS011;21241;51.828;19.574;2023-04-15T06:00:32;22.20;;;20.50;;
35056;SDS011;21241;51.828;19.574;2023-04-15T06:03:01;22.90;;;21.20;;
35056;SDS011;21241;51.828;19.574;2023-04-15T06:05:28;23.60;;;21.80;;
35056;SDS011;21241;51.828;19.574;2023-04-15T06:07:56;23.60;;;21.80;;
35056;SDS011;21241;51.828;19.574;2023-04-15T06:10:24;24.10;;;22.20;;
35056;SDS011;21241;51.828;19.574;2023-04-15T06:12:52;24.20;;;22.30;;
35056;SDS011;21241;51.828;19.574;2023-04-15T06:15:20;24.30;;;22.40;;
35056;SDS011;21241;51.828;19.574;2023-04-15T06:17:47;24.10;;;22.20;;
35056;SDS011;21241;51.828;19.574;2023-04-15T06:20:15;23.80;;;22.00;;
35056;SDS011;21241;51.828;19.574;2023-04-15T06:22:42;23.10;;;21.40;;
35056;SDS011;21241;51.828;19.574;2023-04-15T06:25:10;24.40;;;22.60;;
35056;SDS011;21241;51.828;19.574;2023-04-15T06:27:38;25.90;;;23.80;;
35056;SDS011;21241;51.828;19.574;2023-04-15T06:30:07;25.90;;;24.00;;
35056;SDS011;21241;51.828;19.574;2023-04-15T06:32:35;27.30;;;25.30;;
35056;SDS011;21241;51.828;19.574;2023-04-15T06:35:03;27.40;;;25.20;;
35056;SDS011;21241;51.828;19.574;2023-04-15T06:37:31;26.90;;;24.70;;
35056;SDS011;21241;51.828;19.574;2023-04-15T06:39:59;25.60;;;23.50;;
35056;SDS011;21241;51.828;19.574;2023-04-15T06:42:27;25.30;;;23.10;;
35056;SDS011;21241;51.828;19.574;2023-04-15T06:44:55;27.00;;;24.80;;
35056;SDS011;21241;51.828;19.574;2023-04-15T06:47:23;24.80;;;22.80;;
35056;SDS011;21241;51.828;19.574;2023-04-15T06:49:50;23.90;;;22.00;;
35056;SDS011;21241;51.828;19.574;2023-04-15T06:52:18;24.30;;;22.40;;
35056;SDS011;21241;51.828;19.574;2023-04-15T06:54:46;24.60;;;22.60;;
35056;SDS011;21241;51.828;19.574;2023-04-15T06:57:14;24.80;;;22.90;;
35056;SDS011;21241;51.828;19.574;2023-04-15T06:59:41;23.50;;;21.60;;
35056;SDS011;21241;51.828;19.574;2023-04-15T07:02:10;24.70;;;22.70;;
35056;SDS011;21241;51.828;19.574;2023-04-15T07:04:39;24.20;;;22.20;;
35056;SDS011;21241;51.828;19.574;2023-04-15T07:07:07;23.20;;;21.30;;
35056;SDS011;21241;51.828;19.574;2023-04-15T07:09:35;23.30;;;21.50;;
35056;SDS011;21241;51.828;19.574;2023-04-15T07:12:03;22.90;;;21.00;;
35056;SDS011;21241;51.828;19.574;2023-04-15T07:14:31;23.00;;;21.10;;
35056;SDS011;21241;51.828;19.574;2023-04-15T07:16:59;20.50;;;18.90;;
35056;SDS011;21241;51.828;19.574;2023-04-15T07:19:27;21.30;;;19.70;;
35056;SDS011;21241;51.828;19.574;2023-04-15T07:21:54;20.60;;;19.00;;
35056;SDS011;21241;51.828;19.574;2023-04-15T07:24:23;21.20;;;19.50;;
35056;SDS011;21241;51.828;19.574;2023-04-15T07:26:53;22.70;;;20.90;;
35056;SDS011;21241;51.828;19.574;2023-04-15T07:29:26;22.10;;;20.40;;
35056;SDS011;21241;51.828;19.574;2023-04-15T07:31:54;22.00;;;20.40;;
35056;SDS011;21241;51.828;19.574;2023-04-15T07:34:23;23.30;;;21.50;;
35056;SDS011;21241;51.828;19.574;2023-04-15T07:36:51;24.20;;;22.20;;
35056;SDS011;21241;51.828;19.574;2023-04-15T07:39:19;23.00;;;21.30;;
35056;SDS011;21241;51.828;19.574;2023-04-15T07:41:47;30.20;;;27.90;;
35056;SDS011;21241;51.828;19.574;2023-04-15T07:44:15;25.50;;;23.60;;
35056;SDS011;21241;51.828;19.574;2023-04-15T07:46:43;23.80;;;21.90;;
35056;SDS011;21241;51.828;19.574;2023-04-15T07:49:11;25.20;;;23.30;;
35056;SDS011;21241;51.828;19.574;2023-04-15T07:51:39;24.50;;;22.50;;
35056;SDS011;21241;51.828;19.574;2023-04-15T07:54:07;23.50;;;21.70;;
35056;SDS011;21241;51.828;19.574;2023-04-15T07:56:35;24.60;;;22.50;;
35056;SDS011;21241;51.828;19.574;2023-04-15T07:59:03;24.30;;;22.40;;
35056;SDS011;21241;51.828;19.574;2023-04-15T08:01:32;25.30;;;23.30;;
35056;SDS011;21241;51.828;19.574;2023-04-15T08:04:00;25.80;;;23.60;;
35056;SDS011;21241;51.828;19.574;2023-04-15T08:06:28;27.60;;;25.20;;
35056;SDS011;21241;51.828;19.574;2023-04-15T08:08:56;27.50;;;25.20;;
35056;SDS011;21241;51.828;19.574;2023-04-15T08:11:24;28.20;;;25.80;;
35056;SDS011;21241;51.828;19.574;2023-04-15T08:13:51;27.20;;;24.90;;
35056;SDS011;21241;51.828;19.574;2023-04-15T08:16:23;27.40;;;25.10;;
35056;SDS011;21241;51.828;19.574;2023-04-15T08:18:52;26.00;;;23.90;;
35056;SDS011;21241;51.828;19.574;2023-04-15T08:21:21;27.30;;;24.90;;
35056;SDS011;21241;51.828;19.574;2023-04-15T08:23:50;27.80;;;25.40;;
35056;SDS011;21241;51.828;19.574;2023-04-15T08:26:19;24.90;;;22.90;;
35056;SDS011;21241;51.828;19.574;2023-04-15T08:28:47;26.10;;;24.00;;
35056;SDS011;21241;51.828;19.574;2023-04-15T08:31:16;26.40;;;24.20;;
35056;SDS011;21241;51.828;19.574;2023-04-15T08:33:45;24.50;;;22.60;;
35056;SDS011;21241;51.828;19.574;2023-04-15T08:36:13;25.60;;;23.60;;
35056;SDS011;21241;51.828;19.574;2023-04-15T08:38:41;27.30;;;25.10;;
35056;SDS011;21241;51.828;19.574;2023-04-15T08:41:17;29.20;;;26.70;;
35056;SDS011;21241;51.828;19.574;2023-04-15T08:46:29;30.10;;;27.80;;
35056;SDS011;21241;51.828;19.574;2023-04-15T08:48:58;25.20;;;23.30;;
35056;SDS011;21241;51.828;19.574;2023-04-15T08:51:27;26.20;;;24.10;;
35056;SDS011;21241;51.828;19.574;2023-04-15T08:53:55;26.30;;;24.10;;
35056;SDS011;21241;51.828;19.574;2023-04-15T08:56:23;24.10;;;22.20;;
35056;SDS011;21241;51.828;19.574;2023-04-15T08:58:53;25.80;;;23.70;;
35056;SDS011;21241;51.828;19.574;2023-04-15T09:01:21;26.20;;;24.10;;
35056;SDS011;21241;51.828;19.574;2023-04-15T09:03:49;24.90;;;23.00;;
35056;SDS011;21241;51.828;19.574;2023-04-15T09:06:17;25.70;;;23.60;;
35056;SDS011;21241;51.828;19.574;2023-04-15T09:08:45;23.50;;;21.70;;
35056;SDS011;21241;51.828;19.574;2023-04-15T09:11:12;23.60;;;21.80;;
35056;SDS011;21241;51.828;19.574;2023-04-15T09:13:40;26.10;;;24.00;;
35056;SDS011;21241;51.828;19.574;2023-04-15T09:16:08;23.70;;;22.00;;
35056;SDS011;21241;51.828;19.574;2023-04-15T09:18:38;25.70;;;23.80;;
35056;SDS011;21241;51.828;19.574;2023-04-15T09:21:07;24.90;;;23.00;;
35056;SDS011;21241;51.828;19.574;2023-04-15T09:23:38;24.30;;;22.40;;
35056;SDS011;21241;51.828;19.574;2023-04-15T09:26:29;25.00;;;23.20;;
35056;SDS011;21241;51.828;19.574;2023-04-15T09:29:07;24.60;;;22.80;;
35056;SDS011;21241;51.828;19.574;2023-04-15T09:31:36;24.80;;;22.90;;
35056;SDS011;21241;51.828;19.574;2023-04-15T09:34:04;24.60;;;22.70;;
35056;SDS011;21241;51.828;19.574;2023-04-15T09:39:18;25.20;;;23.30;;
35056;SDS011;21241;51.828;19.574;2023-04-15T09:41:46;23.20;;;21.50;;
35056;SDS011;21241;51.828;19.574;2023-04-15T09:44:23;26.40;;;24.50;;
35056;SDS011;21241;51.828;19.574;2023-04-15T09:46:52;25.80;;;23.80;;
35056;SDS011;21241;51.828;19.574;2023-04-15T09:49:19;26.40;;;24.40;;
35056;SDS011;21241;51.828;19.574;2023-04-15T09:51:47;24.70;;;23.00;;
35056;SDS011;21241;51.828;19.574;2023-04-15T09:54:34;27.50;;;25.50;;
35056;SDS011;21241;51.828;19.574;2023-04-15T09:57:06;27.60;;;25.60;;
35056;SDS011;21241;51.828;19.574;2023-04-15T09:59:34;24.40;;;22.80;;
35056;SDS011;21241;51.828;19.574;2023-04-15T10:02:03;26.60;;;24.80;;
35056;SDS011;21241;51.828;19.574;2023-04-15T10:04:34;24.90;;;23.10;;
35056;SDS011;21241;51.828;19.574;2023-04-15T10:07:03;23.90;;;22.00;;
35056;SDS011;21241;51.828;19.574;2023-04-15T10:09:32;22.10;;;20.60;;
35056;SDS011;21241;51.828;19.574;2023-04-15T10:12:02;24.00;;;22.30;;
35056;SDS011;21241;51.828;19.574;2023-04-15T10:14:34;24.30;;;22.60;;
35056;SDS011;21241;51.828;19.574;2023-04-15T10:17:05;23.70;;;22.10;;
35056;SDS011;21241;51.828;19.574;2023-04-15T10:19:35;23.60;;;22.00;;
35056;SDS011;21241;51.828;19.574;2023-04-15T10:22:03;22.90;;;21.40;;
35056;SDS011;21241;51.828;19.574;2023-04-15T10:24:31;22.50;;;20.90;;
35056;SDS011;21241;51.828;19.574;2023-04-15T10:26:59;21.10;;;19.70;;
35056;SDS011;21241;51.828;19.574;2023-04-15T10:29:30;23.30;;;21.70;;
35056;SDS011;21241;51.828;19.574;2023-04-15T10:31:57;24.70;;;23.00;;
35056;SDS011;21241;51.828;19.574;2023-04-15T10:34:26;26.40;;;24.60;;
35056;SDS011;21241;51.828;19.574;2023-04-15T10:36:54;23.30;;;21.80;;
35056;SDS011;21241;51.828;19.574;2023-04-15T10:42:08;22.30;;;20.80;;
35056;SDS011;21241;51.828;19.574;2023-04-15T10:44:44;24.00;;;22.30;;
35056;SDS011;21241;51.828;19.574;2023-04-15T10:47:16;24.60;;;22.60;;
35056;SDS011;21241;51.828;19.574;2023-04-15T10:49:50;18.40;;;17.20;;
35056;SDS011;21241;51.828;19.574;2023-04-15T10:52:25;21.80;;;19.90;;
35056;SDS011;21241;51.828;19.574;2023-04-15T10:55:01;15.80;;;14.80;;
35056;SDS011;21241;51.828;19.574;2023-04-15T10:57:39;14.90;;;13.90;;
35056;SDS011;21241;51.828;19.574;2023-04-15T11:00:08;14.10;;;13.20;;
35056;SDS011;21241;51.828;19.574;2023-04-15T11:02:48;14.60;;;13.60;;
35056;SDS011;21241;51.828;19.574;2023-04-15T11:05:20;15.70;;;14.70;;
35056;SDS011;21241;51.828;19.574;2023-04-15T11:07:50;16.80;;;15.60;;
35056;SDS011;21241;51.828;19.574;2023-04-15T11:12:58;18.00;;;16.80;;
35056;SDS011;21241;51.828;19.574;2023-04-15T11:18:07;15.00;;;14.00;;
35056;SDS011;21241;51.828;19.574;2023-04-15T11:20:44;16.10;;;15.00;;
35056;SDS011;21241;51.828;19.574;2023-04-15T11:23:14;16.30;;;15.30;;
35056;SDS011;21241;51.828;19.574;2023-04-15T11:25:43;18.20;;;17.00;;
35056;SDS011;21241;51.828;19.574;2023-04-15T11:28:11;20.10;;;18.80;;
35056;SDS011;21241;51.828;19.574;2023-04-15T11:30:39;16.70;;;15.60;;
35056;SDS011;21241;51.828;19.574;2023-04-15T11:33:07;18.00;;;16.80;;
35056;SDS011;21241;51.828;19.574;2023-04-15T11:35:36;14.90;;;13.80;;
35056;SDS011;21241;51.828;19.574;2023-04-15T11:38:05;14.80;;;13.90;;
35056;SDS011;21241;51.828;19.574;2023-04-15T11:40:35;12.20;;;11.40;;
35056;SDS011;21241;51.828;19.574;2023-04-15T11:43:11;12.00;;;11.20;;
35056;SDS011;21241;51.828;19.574;2023-04-15T11:45:47;13.80;;;12.80;;
35056;SDS011;21241;51.828;19.574;2023-04-15T11:48:18;14.20;;;13.30;;
35056;SDS011;21241;51.828;19.574;2023-04-15T11:56:23;14.10;;;13.20;;
35056;SDS011;21241;51.828;19.574;2023-04-15T11:58:56;13.70;;;12.80;;
35056;SDS011;21241;51.828;19.574;2023-04-15T12:01:34;15.10;;;14.20;;
35056;SDS011;21241;51.828;19.574;2023-04-15T12:04:09;14.50;;;13.50;;
35056;SDS011;21241;51.828;19.574;2023-04-15T12:06:41;14.80;;;13.80;;
35056;SDS011;21241;51.828;19.574;2023-04-15T12:09:10;12.40;;;11.60;;
35056;SDS011;21241;51.828;19.574;2023-04-15T12:11:42;12.90;;;12.10;;
35056;SDS011;21241;51.828;19.574;2023-04-15T12:16:53;13.50;;;12.60;;
35056;SDS011;21241;51.828;19.574;2023-04-15T12:19:35;12.80;;;11.90;;
35056;SDS011;21241;51.828;19.574;2023-04-15T12:22:04;13.90;;;13.10;;
35056;SDS011;21241;51.828;19.574;2023-04-15T12:24:37;14.80;;;13.80;;
35056;SDS011;21241;51.828;19.574;2023-04-15T12:27:06;17.20;;;16.20;;
35056;SDS011;21241;51.828;19.574;2023-04-15T12:29:36;9.40;;;8.80;;
35056;SDS011;21241;51.828;19.574;2023-04-15T12:34:38;7.00;;;6.60;;
35056;SDS011;21241;51.828;19.574;2023-04-15T12:37:08;7.80;;;7.30;;
35056;SDS011;21241;51.828;19.574;2023-04-15T12:39:38;8.40;;;7.70;;
35056;SDS011;21241;51.828;19.574;2023-04-15T12:42:08;7.50;;;7.00;;
35056;SDS011;21241;51.828;19.574;2023-04-15T12:44:36;14.30;;;13.30;;
35056;SDS011;21241;51.828;19.574;2023-04-15T12:47:05;17.60;;;16.40;;
35056;SDS011;21241;51.828;19.574;2023-04-15T12:49:34;30.70;;;28.80;;
35056;SDS011;21241;51.828;19.574;2023-04-15T12:52:02;16.60;;;15.20;;
35056;SDS011;21241;51.828;19.574;2023-04-15T12:54:30;18.70;;;17.20;;
35056;SDS011;21241;51.828;19.574;2023-04-15T12:56:58;15.50;;;14.30;;
35056;SDS011;21241;51.828;19.574;2023-04-15T12:59:27;10.90;;;10.10;;
35056;SDS011;21241;51.828;19.574;2023-04-15T13:01:55;11.70;;;10.80;;
35056;SDS011;21241;51.828;19.574;2023-04-15T13:04:23;13.50;;;12.60;;
35056;SDS011;21241;51.828;19.574;2023-04-15T13:06:52;13.00;;;12.00;;
35056;SDS011;21241;51.828;19.574;2023-04-15T13:09:19;13.20;;;12.20;;
35056;SDS011;21241;51.828;19.574;2023-04-15T13:11:48;13.40;;;12.40;;
35056;SDS011;21241;51.828;19.574;2023-04-15T13:14:16;17.20;;;16.00;;
35056;SDS011;21241;51.828;19.574;2023-04-15T13:16:43;16.20;;;15.10;;
35056;SDS011;21241;51.828;19.574;2023-04-15T13:19:11;15.30;;;14.20;;
35056;SDS011;21241;51.828;19.574;2023-04-15T13:21:38;14.80;;;13.80;;
35056;SDS011;21241;51.828;19.574;2023-04-15T13:24:06;14.30;;;13.40;;
35056;SDS011;21241;51.828;19.574;2023-04-15T13:26:34;20.50;;;19.10;;
35056;SDS011;21241;51.828;19.574;2023-04-15T13:29:03;24.80;;;23.00;;
35056;SDS011;21241;51.828;19.574;2023-04-15T13:31:31;14.40;;;13.30;;
35056;SDS011;21241;51.828;19.574;2023-04-15T13:33:59;22.20;;;20.30;;
35056;SDS011;21241;51.828;19.574;2023-04-15T13:36:27;17.40;;;16.20;;
35056;SDS011;21241;51.828;19.574;2023-04-15T13:38:54;14.80;;;13.80;;
35056;SDS011;21241;51.828;19.574;2023-04-15T13:41:23;42.80;;;38.70;;
35056;SDS011;21241;51.828;19.574;2023-04-15T13:43:51;78.40;;;70.80;;
35056;SDS011;21241;51.828;19.574;2023-04-15T13:46:18;62.20;;;55.90;;
35056;SDS011;21241;51.828;19.574;2023-04-15T13:48:46;150.80;;;136.10;;
35056;SDS011;21241;51.828;19.574;2023-04-15T13:51:14;110.30;;;100.30;;
35056;SDS011;21241;51.828;19.574;2023-04-15T13:53:42;27.50;;;25.50;;
35056;SDS011;21241;51.828;19.574;2023-04-15T13:56:09;22.80;;;21.10;;
35056;SDS011;21241;51.828;19.574;2023-04-15T13:58:37;16.80;;;15.50;;
35056;SDS011;21241;51.828;19.574;2023-04-15T14:01:05;13.50;;;12.50;;
35056;SDS011;21241;51.828;19.574;2023-04-15T14:03:34;10.30;;;9.50;;
35056;SDS011;21241;51.828;19.574;2023-04-15T14:06:04;11.30;;;10.60;;
35056;SDS011;21241;51.828;19.574;2023-04-15T14:08:32;15.40;;;14.50;;
35056;SDS011;21241;51.828;19.574;2023-04-15T14:11:00;13.50;;;12.60;;
35056;SDS011;21241;51.828;19.574;2023-04-15T14:13:27;14.40;;;13.30;;
35056;SDS011;21241;51.828;19.574;2023-04-15T14:15:55;14.80;;;13.80;;
35056;SDS011;21241;51.828;19.574;2023-04-15T14:18:24;14.50;;;13.50;;
35056;SDS011;21241;51.828;19.574;2023-04-15T14:20:52;15.10;;;14.00;;
35056;SDS011;21241;51.828;19.574;2023-04-15T14:23:19;14.20;;;13.10;;
35056;SDS011;21241;51.828;19.574;2023-04-15T14:25:47;16.40;;;15.10;;
35056;SDS011;21241;51.828;19.574;2023-04-15T14:28:15;15.70;;;14.50;;
35056;SDS011;21241;51.828;19.574;2023-04-15T14:30:42;15.20;;;14.10;;
35056;SDS011;21241;51.828;19.574;2023-04-15T14:33:10;13.70;;;12.80;;
35056;SDS011;21241;51.828;19.574;2023-04-15T14:35:38;13.40;;;12.40;;
35056;SDS011;21241;51.828;19.574;2023-04-15T14:38:06;15.00;;;13.90;;
35056;SDS011;21241;51.828;19.574;2023-04-15T14:40:37;14.50;;;13.50;;
35056;SDS011;21241;51.828;19.574;2023-04-15T14:43:05;19.80;;;18.40;;